sensor_id;sensor_type;location;lat;lon;timestamp;pressure;altitude;pressure_sealevel;temperature;humidity
74722;BME280;63470;49.826;6.740;2023-12-07T00:01:17;100666.43;;;2.75;70.59
74722;BME280;63470;49.826;6.740;2023-12-07T00:03:53;100670.72;;;2.80;70.61
74722;BME280;63470;49.826;6.740;2023-12-07T00:06:21;100673.45;;;2.86;70.57
74722;BME280;63470;49.826;6.740;2023-12-07T00:08:53;100677.34;;;2.92;70.54
74722;BME280;63470;49.826;6.740;2023-12-07T00:11:29;100672.52;;;2.96;70.44
74722;BME280;63470;49.826;6.740;2023-12-07T00:13:57;100671.94;;;2.98;70.41
74722;BME280;63470;49.826;6.740;2023-12-07T00:16:24;100671.12;;;3.02;70.42
74722;BME280;63470;49.826;6.740;2023-12-07T00:18:50;100676.28;;;3.07;70.39
74722;BME280;63470;49.826;6.740;2023-12-07T00:21:20;100675.44;;;3.09;70.33
74722;BME280;63470;49.826;6.740;2023-12-07T00:23:51;100677.83;;;3.11;70.38
74722;BME280;63470;49.826;6.740;2023-12-07T00:26:21;100677.46;;;3.13;70.36
74722;BME280;63470;49.826;6.740;2023-12-07T00:28:52;100675.42;;;3.17;70.35
74722;BME280;63470;49.826;6.740;2023-12-07T00:31:22;100677.31;;;3.21;70.39
74722;BME280;63470;49.826;6.740;2023-12-07T00:33:53;100677.31;;;3.26;70.43
74722;BME280;63470;49.826;6.740;2023-12-07T00:36:28;100672.91;;;3.29;70.46
74722;BME280;63470;49.826;6.740;2023-12-07T00:38:54;100670.58;;;3.34;70.43
74722;BME280;63470;49.826;6.740;2023-12-07T00:41:25;100667.05;;;3.38;70.38
74722;BME280;63470;49.826;6.740;2023-12-07T00:43:55;100669.23;;;3.40;70.34
74722;BME280;63470;49.826;6.740;2023-12-07T00:46:26;100670.25;;;3.43;70.39
74722;BME280;63470;49.826;6.740;2023-12-07T00:48:56;100674.03;;;3.48;70.40
74722;BME280;63470;49.826;6.740;2023-12-07T00:51:27;100674.48;;;3.54;70.34
74722;BME280;63470;49.826;6.740;2023-12-07T00:53:57;100666.14;;;3.58;70.25
74722;BME280;63470;49.826;6.740;2023-12-07T00:56:27;100668.01;;;3.61;70.23
74722;BME280;63470;49.826;6.740;2023-12-07T00:59:03;100670.61;;;3.62;70.30
74722;BME280;63470;49.826;6.740;2023-12-07T01:01:33;100667.56;;;3.63;70.34
74722;BME280;63470;49.826;6.740;2023-12-07T01:04:04;100674.33;;;3.64;70.38
74722;BME280;63470;49.826;6.740;2023-12-07T01:06:30;100673.95;;;3.65;70.44
74722;BME280;63470;49.826;6.740;2023-12-07T01:09:00;100679.10;;;3.70;70.35
74722;BME280;63470;49.826;6.740;2023-12-07T01:11:31;100677.88;;;3.74;70.30
74722;BME280;63470;49.826;6.740;2023-12-07T01:14:01;100680.32;;;3.78;70.29
74722;BME280;63470;49.826;6.740;2023-12-07T01:16:32;100680.39;;;3.82;70.28
74722;BME280;63470;49.826;6.740;2023-12-07T01:19:02;100686.64;;;3.89;70.25
74722;BME280;63470;49.826;6.740;2023-12-07T01:21:33;100688.27;;;3.93;70.17
74722;BME280;63470;49.826;6.740;2023-12-07T01:24:08;100685.80;;;3.97;70.11
74722;BME280;63470;49.826;6.740;2023-12-07T01:26:36;100688.97;;;4.00;70.08
74722;BME280;63470;49.826;6.740;2023-12-07T01:29:10;100685.26;;;4.03;70.04
74722;BME280;63470;49.826;6.740;2023-12-07T01:31:43;100685.95;;;4.04;70.00
74722;BME280;63470;49.826;6.740;2023-12-07T01:34:10;100692.31;;;4.05;69.98
74722;BME280;63470;49.826;6.740;2023-12-07T01:36:36;100696.00;;;4.05;70.00
74722;BME280;63470;49.826;6.740;2023-12-07T01:39:06;100705.72;;;4.05;69.97
74722;BME280;63470;49.826;6.740;2023-12-07T01:41:37;100703.42;;;4.05;69.99
74722;BME280;63470;49.826;6.740;2023-12-07T01:44:07;100708.68;;;4.06;70.00
74722;BME280;63470;49.826;6.740;2023-12-07T01:46:37;100709.27;;;4.07;69.99
74722;BME280;63470;49.826;6.740;2023-12-07T01:49:08;100709.52;;;4.07;69.95
74722;BME280;63470;49.826;6.740;2023-12-07T01:51:38;100711.06;;;4.08;69.90
74722;BME280;63470;49.826;6.740;2023-12-07T01:54:14;100711.12;;;4.07;69.90
74722;BME280;63470;49.826;6.740;2023-12-07T01:56:44;100704.20;;;4.07;69.92
74722;BME280;63470;49.826;6.740;2023-12-07T01:59:11;100710.91;;;4.08;69.98
74722;BME280;63470;49.826;6.740;2023-12-07T02:01:40;100713.04;;;4.09;70.02
74722;BME280;63470;49.826;6.740;2023-12-07T02:04:11;100711.56;;;4.09;70.04
74722;BME280;63470;49.826;6.740;2023-12-07T02:06:41;100712.09;;;4.11;70.07
74722;BME280;63470;49.826;6.740;2023-12-07T02:09:12;100712.69;;;4.11;70.09
74722;BME280;63470;49.826;6.740;2023-12-07T02:11:42;100717.61;;;4.13;70.05
74722;BME280;63470;49.826;6.740;2023-12-07T02:14:12;100716.05;;;4.13;69.97
74722;BME280;63470;49.826;6.740;2023-12-07T02:16:46;100709.33;;;4.11;70.01
74722;BME280;63470;49.826;6.740;2023-12-07T02:19:41;100710.53;;;4.10;70.02
74722;BME280;63470;49.826;6.740;2023-12-07T02:21:56;100710.86;;;4.10;70.02
74722;BME280;63470;49.826;6.740;2023-12-07T02:24:21;100709.31;;;4.10;70.03
74722;BME280;63470;49.826;6.740;2023-12-07T02:26:50;100710.89;;;4.11;70.02
74722;BME280;63470;49.826;6.740;2023-12-07T02:29:21;100711.36;;;4.11;70.03
74722;BME280;63470;49.826;6.740;2023-12-07T02:31:46;100708.62;;;4.12;70.02
74722;BME280;63470;49.826;6.740;2023-12-07T02:34:17;100703.16;;;4.13;70.09
74722;BME280;63470;49.826;6.740;2023-12-07T02:36:48;100711.23;;;4.17;70.09
74722;BME280;63470;49.826;6.740;2023-12-07T02:39:19;100718.94;;;4.19;70.13
74722;BME280;63470;49.826;6.740;2023-12-07T02:41:49;100714.56;;;4.21;70.13
74722;BME280;63470;49.826;6.740;2023-12-07T02:44:19;100712.56;;;4.23;70.09
74722;BME280;63470;49.826;6.740;2023-12-07T02:46:50;100713.83;;;4.25;70.03
74722;BME280;63470;49.826;6.740;2023-12-07T02:49:25;100711.41;;;4.27;70.00
74722;BME280;63470;49.826;6.740;2023-12-07T02:51:55;100709.27;;;4.27;70.06
74722;BME280;63470;49.826;6.740;2023-12-07T02:54:21;100709.36;;;4.27;70.13
74722;BME280;63470;49.826;6.740;2023-12-07T02:56:51;100707.09;;;4.28;70.15
74722;BME280;63470;49.826;6.740;2023-12-07T02:59:22;100701.86;;;4.28;70.12
74722;BME280;63470;49.826;6.740;2023-12-07T03:01:52;100701.45;;;4.28;70.12
74722;BME280;63470;49.826;6.740;2023-12-07T03:04:23;100704.52;;;4.30;70.11
74722;BME280;63470;49.826;6.740;2023-12-07T03:06:53;100702.56;;;4.30;70.05
74722;BME280;63470;49.826;6.740;2023-12-07T03:09:24;100699.14;;;4.30;70.06
74722;BME280;63470;49.826;6.740;2023-12-07T03:11:54;100696.92;;;4.31;70.03
74722;BME280;63470;49.826;6.740;2023-12-07T03:14:29;100695.78;;;4.31;70.00
74722;BME280;63470;49.826;6.740;2023-12-07T03:17:03;100697.98;;;4.31;70.02
74722;BME280;63470;49.826;6.740;2023-12-07T03:19:29;100697.91;;;4.30;70.03
74722;BME280;63470;49.826;6.740;2023-12-07T03:22:04;100699.66;;;4.29;70.05
74722;BME280;63470;49.826;6.740;2023-12-07T03:24:44;100696.73;;;4.29;70.06
74722;BME280;63470;49.826;6.740;2023-12-07T03:27:02;100692.66;;;4.29;70.03
74722;BME280;63470;49.826;6.740;2023-12-07T03:29:28;100695.58;;;4.28;69.97
74722;BME280;63470;49.826;6.740;2023-12-07T03:31:58;100695.30;;;4.26;70.01
74722;BME280;63470;49.826;6.740;2023-12-07T03:34:29;100696.45;;;4.26;70.01
74722;BME280;63470;49.826;6.740;2023-12-07T03:36:59;100694.78;;;4.25;69.97
74722;BME280;63470;49.826;6.740;2023-12-07T03:39:33;100693.28;;;4.22;69.87
74722;BME280;63470;49.826;6.740;2023-12-07T03:42:00;100697.62;;;4.18;69.92
74722;BME280;63470;49.826;6.740;2023-12-07T03:44:31;100693.52;;;4.13;70.09
74722;BME280;63470;49.826;6.740;2023-12-07T03:47:07;100695.07;;;4.12;70.16
74722;BME280;63470;49.826;6.740;2023-12-07T03:49:38;100699.42;;;4.10;70.19
74722;BME280;63470;49.826;6.740;2023-12-07T03:52:07;100696.30;;;4.08;70.22
74722;BME280;63470;49.826;6.740;2023-12-07T03:54:38;100701.61;;;4.09;70.31
74722;BME280;63470;49.826;6.740;2023-12-07T03:57:08;100703.31;;;4.08;70.29
74722;BME280;63470;49.826;6.740;2023-12-07T03:59:35;100700.78;;;4.08;70.33
74722;BME280;63470;49.826;6.740;2023-12-07T04:02:04;100699.05;;;4.07;70.37
74722;BME280;63470;49.826;6.740;2023-12-07T04:04:35;100699.31;;;4.08;70.38
74722;BME280;63470;49.826;6.740;2023-12-07T04:07:05;100698.27;;;4.09;70.37
74722;BME280;63470;49.826;6.740;2023-12-07T04:09:35;100699.35;;;4.10;70.34
74722;BME280;63470;49.826;6.740;2023-12-07T04:12:06;100701.13;;;4.09;70.31
74722;BME280;63470;49.826;6.740;2023-12-07T04:14:37;100691.94;;;4.07;70.25
74722;BME280;63470;49.826;6.740;2023-12-07T04:17:08;100694.95;;;4.02;70.16
74722;BME280;63470;49.826;6.740;2023-12-07T04:19:43;100696.74;;;3.97;70.21
74722;BME280;63470;49.826;6.740;2023-12-07T04:22:08;100699.19;;;3.93;70.30
74722;BME280;63470;49.826;6.740;2023-12-07T04:24:39;100695.45;;;3.89;70.32
74722;BME280;63470;49.826;6.740;2023-12-07T04:27:09;100695.72;;;3.85;70.35
74722;BME280;63470;49.826;6.740;2023-12-07T04:29:39;100697.03;;;3.82;70.41
74722;BME280;63470;49.826;6.740;2023-12-07T04:32:10;100694.63;;;3.80;70.48
74722;BME280;63470;49.826;6.740;2023-12-07T04:34:40;100699.40;;;3.81;70.54
74722;BME280;63470;49.826;6.740;2023-12-07T04:37:11;100702.92;;;3.82;70.55
74722;BME280;63470;49.826;6.740;2023-12-07T04:39:46;100702.54;;;3.83;70.51
74722;BME280;63470;49.826;6.740;2023-12-07T04:42:16;100701.36;;;3.82;70.51
74722;BME280;63470;49.826;6.740;2023-12-07T04:44:42;100704.86;;;3.82;70.51
74722;BME280;63470;49.826;6.740;2023-12-07T04:47:12;100708.88;;;3.82;70.48
74722;BME280;63470;49.826;6.740;2023-12-07T04:49:43;100708.95;;;3.82;70.47
74722;BME280;63470;49.826;6.740;2023-12-07T04:52:13;100710.81;;;3.82;70.49
74722;BME280;63470;49.826;6.740;2023-12-07T04:54:43;100716.47;;;3.82;70.46
74722;BME280;63470;49.826;6.740;2023-12-07T04:57:14;100721.72;;;3.83;70.47
74722;BME280;63470;49.826;6.740;2023-12-07T04:59:47;100728.38;;;3.82;70.42
74722;BME280;63470;49.826;6.740;2023-12-07T05:02:25;100728.33;;;3.80;70.45
74722;BME280;63470;49.826;6.740;2023-12-07T05:04:50;100728.66;;;3.80;70.45
74722;BME280;63470;49.826;6.740;2023-12-07T05:07:24;100728.66;;;3.80;70.38
74722;BME280;63470;49.826;6.740;2023-12-07T05:09:47;100724.35;;;3.75;70.40
74722;BME280;63470;49.826;6.740;2023-12-07T05:12:17;100721.75;;;3.73;70.43
74722;BME280;63470;49.826;6.740;2023-12-07T05:14:47;100720.99;;;3.72;70.45
74722;BME280;63470;49.826;6.740;2023-12-07T05:17:18;100725.47;;;3.72;70.48
74722;BME280;63470;49.826;6.740;2023-12-07T05:19:48;100719.89;;;3.73;70.55
74722;BME280;63470;49.826;6.740;2023-12-07T05:22:19;100722.06;;;3.75;70.50
74722;BME280;63470;49.826;6.740;2023-12-07T05:24:50;100723.23;;;3.77;70.41
74722;BME280;63470;49.826;6.740;2023-12-07T05:27:20;100717.72;;;3.76;70.38
74722;BME280;63470;49.826;6.740;2023-12-07T05:29:55;100719.40;;;3.74;70.38
74722;BME280;63470;49.826;6.740;2023-12-07T05:32:26;100721.50;;;3.72;70.36
74722;BME280;63470;49.826;6.740;2023-12-07T05:34:57;100715.84;;;3.71;70.38
74722;BME280;63470;49.826;6.740;2023-12-07T05:37:22;100712.27;;;3.68;70.42
74722;BME280;63470;49.826;6.740;2023-12-07T05:39:53;100719.35;;;3.67;70.47
74722;BME280;63470;49.826;6.740;2023-12-07T05:42:23;100719.77;;;3.68;70.43
74722;BME280;63470;49.826;6.740;2023-12-07T05:44:54;100725.48;;;3.67;70.44
74722;BME280;63470;49.826;6.740;2023-12-07T05:47:26;100726.84;;;3.65;70.44
74722;BME280;63470;49.826;6.740;2023-12-07T05:50:00;100720.47;;;3.65;70.40
74722;BME280;63470;49.826;6.740;2023-12-07T05:52:26;100728.89;;;3.65;70.37
74722;BME280;63470;49.826;6.740;2023-12-07T05:55:01;100732.44;;;3.63;70.41
74722;BME280;63470;49.826;6.740;2023-12-07T05:57:26;100748.66;;;3.63;70.43
74722;BME280;63470;49.826;6.740;2023-12-07T05:59:57;100756.61;;;3.62;70.43
74722;BME280;63470;49.826;6.740;2023-12-07T06:02:27;100749.19;;;3.61;70.44
74722;BME280;63470;49.826;6.740;2023-12-07T06:04:58;100743.75;;;3.64;70.58
74722;BME280;63470;49.826;6.740;2023-12-07T06:07:28;100739.41;;;3.65;70.53
74722;BME280;63470;49.826;6.740;2023-12-07T06:09:59;100740.78;;;3.65;70.47
74722;BME280;63470;49.826;6.740;2023-12-07T06:12:29;100743.52;;;3.64;70.39
74722;BME280;63470;49.826;6.740;2023-12-07T06:15:05;100746.91;;;3.62;70.36
74722;BME280;63470;49.826;6.740;2023-12-07T06:17:39;100744.64;;;3.59;70.33
74722;BME280;63470;49.826;6.740;2023-12-07T06:20:11;100743.52;;;3.55;70.34
74722;BME280;63470;49.826;6.740;2023-12-07T06:22:38;100745.37;;;3.50;70.34
74722;BME280;63470;49.826;6.740;2023-12-07T06:25:02;100750.80;;;3.49;70.40
74722;BME280;63470;49.826;6.740;2023-12-07T06:27:35;100760.20;;;3.46;70.48
74722;BME280;63470;49.826;6.740;2023-12-07T06:30:07;100753.19;;;3.46;nan
74722;BME280;63470;49.826;6.740;2023-12-07T06:32:34;100752.64;;;3.47;70.57
74722;BME280;63470;49.826;6.740;2023-12-07T06:35:07;100750.51;;;3.46;70.51
74722;BME280;63470;49.826;6.740;2023-12-07T06:37:34;100747.13;;;3.46;70.55
74722;BME280;63470;49.826;6.740;2023-12-07T06:40:06;100738.34;;;3.46;70.60
74722;BME280;63470;49.826;6.740;2023-12-07T06:42:48;100736.42;;;3.47;70.64
74722;BME280;63470;49.826;6.740;2023-12-07T06:45:08;100738.50;;;3.50;70.64
74722;BME280;63470;49.826;6.740;2023-12-07T06:47:38;100737.90;;;3.51;70.58
74722;BME280;63470;49.826;6.740;2023-12-07T06:50:13;100742.75;;;3.53;70.55
74722;BME280;63470;49.826;6.740;2023-12-07T06:52:39;100732.39;;;3.53;70.47
74722;BME280;63470;49.826;6.740;2023-12-07T06:55:07;100732.62;;;3.50;70.34
74722;BME280;63470;49.826;6.740;2023-12-07T06:57:37;100742.59;;;3.46;70.30
74722;BME280;63470;49.826;6.740;2023-12-07T07:00:11;100739.14;;;3.42;70.37
74722;BME280;63470;49.826;6.740;2023-12-07T07:02:38;100736.07;;;3.38;70.37
74722;BME280;63470;49.826;6.740;2023-12-07T07:05:12;100734.19;;;3.34;70.40
74722;BME280;63470;49.826;6.740;2023-12-07T07:07:39;100733.16;;;3.32;70.38
74722;BME280;63470;49.826;6.740;2023-12-07T07:10:13;100731.41;;;3.30;70.42
74722;BME280;63470;49.826;6.740;2023-12-07T07:12:54;100733.52;;;3.29;70.43
74722;BME280;63470;49.826;6.740;2023-12-07T07:15:21;100734.93;;;3.28;70.45
74722;BME280;63470;49.826;6.740;2023-12-07T07:17:47;100729.29;;;3.26;70.47
74722;BME280;63470;49.826;6.740;2023-12-07T07:20:14;100726.82;;;3.26;70.49
74722;BME280;63470;49.826;6.740;2023-12-07T07:22:43;100726.36;;;3.26;nan
74722;BME280;63470;49.826;6.740;2023-12-07T07:25:16;100727.47;;;3.29;nan
74722;BME280;63470;49.826;6.740;2023-12-07T07:27:43;100725.44;;;3.30;70.54
74722;BME280;63470;49.826;6.740;2023-12-07T07:30:14;100732.48;;;3.31;nan
74722;BME280;63470;49.826;6.740;2023-12-07T07:32:45;100727.42;;;3.31;70.58
74722;BME280;63470;49.826;6.740;2023-12-07T07:35:15;100722.67;;;3.33;70.64
74722;BME280;63470;49.826;6.740;2023-12-07T07:37:46;100718.88;;;3.35;70.58
74722;BME280;63470;49.826;6.740;2023-12-07T07:40:21;100717.01;;;3.35;nan
74722;BME280;63470;49.826;6.740;2023-12-07T07:42:46;100706.97;;;3.36;nan
74722;BME280;63470;49.826;6.740;2023-12-07T07:45:17;100698.16;;;3.36;70.49
74722;BME280;63470;49.826;6.740;2023-12-07T07:47:47;100694.66;;;3.35;nan
74722;BME280;63470;49.826;6.740;2023-12-07T07:50:18;100694.33;;;3.36;70.55
74722;BME280;63470;49.826;6.740;2023-12-07T07:52:48;100695.97;;;3.36;70.53
74722;BME280;63470;49.826;6.740;2023-12-07T07:55:19;100701.77;;;3.36;70.59
74722;BME280;63470;49.826;6.740;2023-12-07T07:57:49;100702.28;;;3.38;70.65
74722;BME280;63470;49.826;6.740;2023-12-07T08:00:25;100702.67;;;3.40;70.63
74722;BME280;63470;49.826;6.740;2023-12-07T08:02:50;100700.50;;;3.42;70.60
74722;BME280;63470;49.826;6.740;2023-12-07T08:05:21;100702.38;;;3.46;70.59
74722;BME280;63470;49.826;6.740;2023-12-07T08:07:51;100698.86;;;3.49;70.56
74722;BME280;63470;49.826;6.740;2023-12-07T08:10:22;100690.34;;;3.56;nan
74722;BME280;63470;49.826;6.740;2023-12-07T08:12:52;100681.25;;;3.63;70.49
74722;BME280;63470;49.826;6.740;2023-12-07T08:15:23;100682.34;;;3.69;70.45
74722;BME280;63470;49.826;6.740;2023-12-07T08:17:53;100689.55;;;3.73;70.43
74722;BME280;63470;49.826;6.740;2023-12-07T08:20:23;100687.17;;;3.78;70.40
74722;BME280;63470;49.826;6.740;2023-12-07T08:22:56;100690.20;;;3.83;70.38
74722;BME280;63470;49.826;6.740;2023-12-07T08:25:30;100684.12;;;3.90;70.38
74722;BME280;63470;49.826;6.740;2023-12-07T08:27:55;100685.53;;;3.99;70.36
74722;BME280;63470;49.826;6.740;2023-12-07T08:30:26;100684.15;;;4.09;70.33
74722;BME280;63470;49.826;6.740;2023-12-07T08:32:56;100685.45;;;4.19;70.24
74722;BME280;63470;49.826;6.740;2023-12-07T08:35:27;100684.70;;;4.23;70.19
74722;BME280;63470;49.826;6.740;2023-12-07T08:37:57;100686.22;;;4.26;70.19
74722;BME280;63470;49.826;6.740;2023-12-07T08:40:27;100690.52;;;4.32;70.28
74722;BME280;63470;49.826;6.740;2023-12-07T08:42:58;100689.05;;;4.39;70.21
74722;BME280;63470;49.826;6.740;2023-12-07T08:45:33;100687.20;;;4.41;70.10
74722;BME280;63470;49.826;6.740;2023-12-07T08:48:09;100682.81;;;4.37;70.16
74722;BME280;63470;49.826;6.740;2023-12-07T08:50:30;100673.20;;;4.32;70.22
74722;BME280;63470;49.826;6.740;2023-12-07T08:53:00;100675.47;;;4.33;70.30
74722;BME280;63470;49.826;6.740;2023-12-07T08:55:31;100680.98;;;4.35;70.38
74722;BME280;63470;49.826;6.740;2023-12-07T08:58:01;100676.42;;;4.41;70.23
74722;BME280;63470;49.826;6.740;2023-12-07T09:00:31;100670.40;;;4.43;70.10
74722;BME280;63470;49.826;6.740;2023-12-07T09:03:02;100669.70;;;4.39;70.11
74722;BME280;63470;49.826;6.740;2023-12-07T09:05:31;100673.72;;;4.34;70.20
74722;BME280;63470;49.826;6.740;2023-12-07T09:08:01;100668.15;;;4.34;70.30
74722;BME280;63470;49.826;6.740;2023-12-07T09:10:34;100663.76;;;4.40;70.37
74722;BME280;63470;49.826;6.740;2023-12-07T09:13:05;100658.94;;;4.45;70.17
74722;BME280;63470;49.826;6.740;2023-12-07T09:15:37;100654.53;;;4.50;70.11
74722;BME280;63470;49.826;6.740;2023-12-07T09:18:06;100656.46;;;4.54;70.07
74722;BME280;63470;49.826;6.740;2023-12-07T09:20:39;100652.14;;;4.61;70.11
74722;BME280;63470;49.826;6.740;2023-12-07T09:23:10;100658.48;;;4.69;70.15
74722;BME280;63470;49.826;6.740;2023-12-07T09:25:43;100654.81;;;4.76;70.01
74722;BME280;63470;49.826;6.740;2023-12-07T09:28:11;100653.27;;;4.82;70.02
74722;BME280;63470;49.826;6.740;2023-12-07T09:30:36;100653.28;;;4.88;70.13
74722;BME280;63470;49.826;6.740;2023-12-07T09:33:07;100654.58;;;5.00;70.22
74722;BME280;63470;49.826;6.740;2023-12-07T09:35:38;100649.87;;;5.15;70.00
74722;BME280;63470;49.826;6.740;2023-12-07T09:38:08;100645.31;;;5.11;69.80
74722;BME280;63470;49.826;6.740;2023-12-07T09:40:39;100645.37;;;5.03;69.86
74722;BME280;63470;49.826;6.740;2023-12-07T09:43:09;100659.16;;;4.95;70.05
74722;BME280;63470;49.826;6.740;2023-12-07T09:45:40;100651.98;;;4.91;70.23
74722;BME280;63470;49.826;6.740;2023-12-07T09:48:16;100648.16;;;4.91;70.44
74722;BME280;63470;49.826;6.740;2023-12-07T09:50:41;100638.29;;;5.05;70.29
74722;BME280;63470;49.826;6.740;2023-12-07T09:53:11;100642.33;;;5.21;70.19
74722;BME280;63470;49.826;6.740;2023-12-07T09:55:42;100642.05;;;5.25;70.26
74722;BME280;63470;49.826;6.740;2023-12-07T09:58:14;100637.31;;;5.32;70.24
74722;BME280;63470;49.826;6.740;2023-12-07T10:00:43;100631.51;;;5.39;70.07
74722;BME280;63470;49.826;6.740;2023-12-07T10:03:20;100636.02;;;5.33;70.09
74722;BME280;63470;49.826;6.740;2023-12-07T10:05:57;100631.48;;;5.31;70.21
74722;BME280;63470;49.826;6.740;2023-12-07T10:08:26;100631.64;;;5.43;70.23
74722;BME280;63470;49.826;6.740;2023-12-07T10:10:53;100634.05;;;5.53;70.11
74722;BME280;63470;49.826;6.740;2023-12-07T10:13:20;100632.33;;;5.61;70.18
74722;BME280;63470;49.826;6.740;2023-12-07T10:16:01;100631.70;;;5.65;70.12
74722;BME280;63470;49.826;6.740;2023-12-07T10:18:24;100624.25;;;5.57;70.47
74722;BME280;63470;49.826;6.740;2023-12-07T10:20:54;100620.41;;;5.81;70.39
74722;BME280;63470;49.826;6.740;2023-12-07T10:23:23;100617.77;;;5.92;70.00
74722;BME280;63470;49.826;6.740;2023-12-07T10:25:53;100616.47;;;5.94;69.96
74722;BME280;63470;49.826;6.740;2023-12-07T10:28:25;100612.88;;;6.04;70.15
74722;BME280;63470;49.826;6.740;2023-12-07T10:30:50;100599.00;;;6.11;69.97
74722;BME280;63470;49.826;6.740;2023-12-07T10:33:25;100595.22;;;6.01;70.13
74722;BME280;63470;49.826;6.740;2023-12-07T10:35:50;100586.34;;;5.97;70.32
74722;BME280;63470;49.826;6.740;2023-12-07T10:38:28;100581.95;;;5.98;70.09
74722;BME280;63470;49.826;6.740;2023-12-07T10:41:05;100566.42;;;6.02;69.80
74722;BME280;63470;49.826;6.740;2023-12-07T10:43:30;100556.09;;;6.03;69.49
74722;BME280;63470;49.826;6.740;2023-12-07T10:45:56;100555.67;;;6.01;69.23
74722;BME280;63470;49.826;6.740;2023-12-07T10:48:27;100546.71;;;5.96;69.36
74722;BME280;63470;49.826;6.740;2023-12-07T10:50:53;100543.16;;;6.02;69.39
74722;BME280;63470;49.826;6.740;2023-12-07T10:53:27;100535.55;;;6.16;69.24
74722;BME280;63470;49.826;6.740;2023-12-07T10:56:00;100531.95;;;6.42;69.06
74722;BME280;63470;49.826;6.740;2023-12-07T10:58:27;100531.19;;;6.73;68.82
74722;BME280;63470;49.826;6.740;2023-12-07T11:00:54;100528.25;;;6.96;68.26
74722;BME280;63470;49.826;6.740;2023-12-07T11:03:25;100524.98;;;7.05;68.12
74722;BME280;63470;49.826;6.740;2023-12-07T11:05:55;100518.30;;;7.16;68.21
74722;BME280;63470;49.826;6.740;2023-12-07T11:08:46;100514.40;;;7.35;68.07
74722;BME280;63470;49.826;6.740;2023-12-07T11:13:32;100492.17;;;7.51;67.73
74722;BME280;63470;49.826;6.740;2023-12-07T11:15:57;100492.87;;;7.22;67.90
74722;BME280;63470;49.826;6.740;2023-12-07T11:18:28;100486.58;;;6.94;68.24
74722;BME280;63470;49.826;6.740;2023-12-07T11:20:59;100482.78;;;6.86;68.54
74722;BME280;63470;49.826;6.740;2023-12-07T11:23:32;100482.16;;;6.79;68.72
74722;BME280;63470;49.826;6.740;2023-12-07T11:26:00;100476.11;;;6.80;69.00
74722;BME280;63470;49.826;6.740;2023-12-07T11:28:39;100472.45;;;6.86;69.05
74722;BME280;63470;49.826;6.740;2023-12-07T11:31:07;100465.98;;;7.01;68.90
74722;BME280;63470;49.826;6.740;2023-12-07T11:33:37;100458.23;;;7.72;67.92
74722;BME280;63470;49.826;6.740;2023-12-07T11:38:37;100445.44;;;9.53;66.46
74722;BME280;63470;49.826;6.740;2023-12-07T11:41:04;100444.80;;;10.32;66.68
74722;BME280;63470;49.826;6.740;2023-12-07T11:43:37;100445.69;;;10.65;66.75
74722;BME280;63470;49.826;6.740;2023-12-07T11:46:04;100436.53;;;10.78;66.96
74722;BME280;63470;49.826;6.740;2023-12-07T11:48:34;100439.80;;;10.54;66.66
74722;BME280;63470;49.826;6.740;2023-12-07T11:51:06;100441.86;;;10.35;66.76
74722;BME280;63470;49.826;6.740;2023-12-07T11:53:36;100444.92;;;10.01;67.17
74722;BME280;63470;49.826;6.740;2023-12-07T11:56:07;100442.83;;;9.70;67.30
74722;BME280;63470;49.826;6.740;2023-12-07T11:58:41;100440.97;;;9.46;67.65
74722;BME280;63470;49.826;6.740;2023-12-07T12:01:08;100442.45;;;9.46;67.97
74722;BME280;63470;49.826;6.740;2023-12-07T12:03:43;100441.34;;;9.70;67.76
74722;BME280;63470;49.826;6.740;2023-12-07T12:06:17;100434.87;;;9.93;67.78
74722;BME280;63470;49.826;6.740;2023-12-07T12:08:46;100430.88;;;10.15;67.63
74722;BME280;63470;49.826;6.740;2023-12-07T12:11:13;100427.66;;;10.14;67.45
74722;BME280;63470;49.826;6.740;2023-12-07T12:13:42;100428.52;;;10.01;67.82
74722;BME280;63470;49.826;6.740;2023-12-07T12:16:14;100428.60;;;9.85;68.55
74722;BME280;63470;49.826;6.740;2023-12-07T12:18:44;100430.30;;;9.81;68.79
74722;BME280;63470;49.826;6.740;2023-12-07T12:21:13;100426.81;;;10.18;68.56
74722;BME280;63470;49.826;6.740;2023-12-07T12:23:49;100429.72;;;10.42;67.75
74722;BME280;63470;49.826;6.740;2023-12-07T12:26:16;100431.14;;;10.67;67.85
74722;BME280;63470;49.826;6.740;2023-12-07T12:28:48;100428.58;;;10.91;67.45
74722;BME280;63470;49.826;6.740;2023-12-07T12:31:17;100418.30;;;11.06;67.71
74722;BME280;63470;49.826;6.740;2023-12-07T12:33:48;100398.94;;;11.24;67.75
74722;BME280;63470;49.826;6.740;2023-12-07T12:36:19;100396.59;;;11.35;67.77
74722;BME280;63470;49.826;6.740;2023-12-07T12:38:49;100393.60;;;11.32;68.02
74722;BME280;63470;49.826;6.740;2023-12-07T12:41:20;100399.82;;;10.93;68.80
74722;BME280;63470;49.826;6.740;2023-12-07T12:43:49;100405.09;;;10.54;69.76
74722;BME280;63470;49.826;6.740;2023-12-07T12:46:18;100400.63;;;10.28;70.17
74722;BME280;63470;49.826;6.740;2023-12-07T12:49:02;100388.59;;;9.90;70.25
74722;BME280;63470;49.826;6.740;2023-12-07T12:51:17;100376.59;;;9.53;70.54
74722;BME280;63470;49.826;6.740;2023-12-07T12:53:51;100364.24;;;9.34;70.03
74722;BME280;63470;49.826;6.740;2023-12-07T12:56:20;100358.39;;;8.93;69.80
74722;BME280;63470;49.826;6.740;2023-12-07T12:58:51;100361.82;;;8.45;69.90
74722;BME280;63470;49.826;6.740;2023-12-07T13:01:22;100356.75;;;7.97;70.10
74722;BME280;63470;49.826;6.740;2023-12-07T13:03:48;100347.24;;;7.59;70.20
74722;BME280;63470;49.826;6.740;2023-12-07T13:06:22;100342.43;;;7.28;70.27
74722;BME280;63470;49.826;6.740;2023-12-07T13:08:50;100334.17;;;6.98;70.30
74722;BME280;63470;49.826;6.740;2023-12-07T13:11:21;100322.02;;;6.72;70.34
74722;BME280;63470;49.826;6.740;2023-12-07T13:13:49;100311.73;;;6.50;70.41
74722;BME280;63470;49.826;6.740;2023-12-07T13:16:21;100309.20;;;6.30;70.41
74722;BME280;63470;49.826;6.740;2023-12-07T13:18:50;100308.35;;;6.15;70.47
74722;BME280;63470;49.826;6.740;2023-12-07T13:21:25;100298.73;;;6.01;70.45